Time;durP1;ratioP1;P1;durP2;ratioP2;P2;SDS_P1;SDS_P2;PMS_P1;PMS_P2;Temp;Humidity;BMP_temperature;BMP_pressure;BME280_temperature;BME280_humidity;BME280_pressure;Samples;Min_cycle;Max_cycle;Signal;HPM_P1;HPM_P2
2022/08/06 00:01:19;;;;;;;9.30;3.00;;;;;;;18.41;96.30;99882.77;105008;1273;62052;-62
2022/08/06 00:04:07;;;;;;;7.70;2.90;;;;;;;18.41;96.59;99892.80;104873;1274;73907;-60
2022/08/06 00:06:55;;;;;;;8.80;2.80;;;;;;;18.39;96.33;99890.63;104888;1274;68639;-58
2022/08/06 00:09:43;;;;;;;8.20;3.30;;;;;;;18.36;96.50;99896.48;105038;1273;74423;-55
2022/08/06 00:12:45;;;;;;;9.20;3.00;;;;;;;18.36;96.89;99906.39;104877;1273;60075;-57
2022/08/06 00:15:35;;;;;;;7.10;2.60;;;;;;;18.33;97.02;99908.52;105215;1272;61553;-55
2022/08/06 00:18:43;;;;;;;8.70;3.00;;;;;;;18.31;97.15;99905.56;104776;1273;74741;-58
2022/08/06 00:21:32;;;;;;;9.00;2.60;;;;;;;18.27;96.93;99911.36;104811;1273;69557;-61
2022/08/06 00:24:29;;;;;;;8.30;2.60;;;;;;;18.22;95.76;99913.70;105141;1273;73602;-57
2022/08/06 00:27:18;;;;;;;8.70;2.60;;;;;;;18.19;95.71;99926.66;104996;1273;59653;-61
2022/08/06 00:30:15;;;;;;;8.30;2.20;;;;;;;18.15;95.41;99925.84;104818;1273;60790;-63
2022/08/06 00:33:08;;;;;;;7.40;2.10;;;;;;;18.13;94.92;99925.52;104817;1274;73710;-64
2022/08/06 00:35:57;;;;;;;8.20;2.20;;;;;;;18.10;94.57;99928.89;104822;1274;67654;-61
2022/08/06 00:38:46;;;;;;;8.50;2.20;;;;;;;18.06;94.50;99934.16;104890;1274;74417;-62
2022/08/06 00:41:35;;;;;;;8.70;2.10;;;;;;;18.02;94.16;99933.30;105046;1273;60016;-64
2022/08/06 00:44:33;;;;;;;7.90;2.10;;;;;;;17.97;94.27;99931.46;105111;1273;61828;-62
2022/08/06 00:47:21;;;;;;;9.70;2.00;;;;;;;17.93;94.14;99939.59;105233;1273;73263;-60
2022/08/06 00:50:30;;;;;;;8.10;2.20;;;;;;;17.90;94.37;99942.55;104791;1273;69605;-62
2022/08/06 00:53:19;;;;;;;7.30;2.10;;;;;;;17.87;94.41;99947.33;104852;1274;74455;-61
2022/08/06 00:56:07;;;;;;;5.70;1.50;;;;;;;17.85;94.35;99953.29;104870;1273;60971;-60
2022/08/06 00:58:57;;;;;;;7.70;1.70;;;;;;;17.83;93.91;99955.20;105129;1273;62099;-63
2022/08/06 01:01:50;;;;;;;7.10;1.80;;;;;;;17.78;93.58;99947.60;104996;1273;72719;-62
2022/08/06 01:04:39;;;;;;;8.20;1.80;;;;;;;17.75;93.03;99948.39;104931;1273;68578;-62
2022/08/06 01:07:27;;;;;;;8.80;1.80;;;;;;;17.69;92.88;99950.07;104738;1273;73621;-62
2022/08/06 01:10:36;;;;;;;8.70;1.80;;;;;;;17.63;91.67;99952.55;104986;1274;61005;-62
2022/08/06 01:13:29;;;;;;;6.40;1.30;;;;;;;17.55;90.80;99958.73;104938;1273;62350;-62
2022/08/06 01:16:51;;;;;;;6.90;1.40;;;;;;;17.48;90.48;99956.61;104850;1272;74538;-61
2022/08/06 01:20:08;;;;;;;5.70;1.30;;;;;;;17.45;90.14;99952.34;105062;1273;69560;-62
2022/08/06 01:23:52;;;;;;;5.70;1.10;;;;;;;17.38;89.38;99951.83;104732;1273;73533;-62
2022/08/06 01:27:39;;;;;;;7.20;1.50;;;;;;;17.29;89.33;99950.48;104848;1273;59673;-62
2022/08/06 01:30:38;;;;;;;8.90;1.50;;;;;;;17.19;88.88;99961.88;105020;1273;61582;-62
2022/08/06 01:33:38;;;;;;;5.60;1.30;;;;;;;17.12;88.89;99964.38;105117;1273;74711;-61
2022/08/06 01:36:42;;;;;;;6.80;1.10;;;;;;;17.08;88.95;99967.20;104885;1273;69579;-61
2022/08/06 01:39:37;;;;;;;9.40;1.30;;;;;;;17.01;88.49;99967.36;104726;1274;74854;-61
2022/08/06 01:42:48;;;;;;;6.90;1.50;;;;;;;16.94;88.66;99960.58;104934;1274;59668;-61
2022/08/06 01:45:42;;;;;;;8.30;1.20;;;;;;;16.87;88.74;99973.13;104843;1273;62086;-64
2022/08/06 01:48:43;;;;;;;8.50;1.30;;;;;;;16.83;88.90;99987.69;104996;1273;74894;-62
2022/08/06 01:51:33;;;;;;;6.60;1.20;;;;;;;16.77;88.97;99990.65;105027;1273;69621;-60
2022/08/06 01:54:47;;;;;;;4.80;1.00;;;;;;;16.70;89.01;99998.38;104801;1273;73318;-62
2022/08/06 01:57:48;;;;;;;6.80;1.50;;;;;;;16.65;89.11;100001.70;104993;1273;61172;-61
2022/08/06 02:00:59;;;;;;;5.90;1.10;;;;;;;16.60;89.30;99996.60;105075;1273;62409;-61
2022/08/06 02:03:54;;;;;;;7.80;1.20;;;;;;;16.54;89.53;100014.95;104986;1273;72797;-62
2022/08/06 02:06:50;;;;;;;5.60;1.10;;;;;;;16.41;90.06;100004.47;104912;1273;68632;-61
2022/08/06 02:09:40;;;;;;;7.60;1.30;;;;;;;16.31;90.01;100011.02;104919;1274;73369;-63
2022/08/06 02:12:29;;;;;;;5.40;1.20;;;;;;;16.22;90.04;100015.65;104835;1274;60238;-63
2022/08/06 02:15:28;;;;;;;6.20;1.20;;;;;;;16.18;90.38;100018.79;105109;1274;61360;-62
2022/08/06 02:18:41;;;;;;;7.20;1.30;;;;;;;16.14;90.50;100017.35;104789;1273;73818;-61
2022/08/06 02:21:34;;;;;;;7.80;1.20;;;;;;;16.11;90.91;100024.70;105192;1273;69255;-64
2022/08/06 02:24:24;;;;;;;6.10;1.30;;;;;;;16.07;91.23;100032.92;104765;1273;73312;-64
2022/08/06 02:27:17;;;;;;;6.80;1.50;;;;;;;16.07;91.48;100042.96;104941;1274;59714;-64
2022/08/06 02:30:12;;;;;;;6.40;1.00;;;;;;;16.08;91.48;100041.50;104732;1274;62102;-61
2022/08/06 02:33:20;;;;;;;4.80;1.10;;;;;;;16.08;91.28;100052.33;104729;1273;73373;-63
2022/08/06 02:36:36;;;;;;;6.60;1.40;;;;;;;16.12;91.29;100046.45;104788;1273;68563;-63
2022/08/06 02:39:44;;;;;;;7.00;1.20;;;;;;;16.11;90.93;100046.52;104829;1273;71720;-64
2022/08/06 02:42:58;;;;;;;5.20;1.20;;;;;;;16.08;91.21;100047.14;105102;1273;59685;-63
2022/08/06 02:46:19;;;;;;;6.00;1.10;;;;;;;16.06;91.59;100034.83;104870;1274;61875;-64
2022/08/06 02:49:23;;;;;;;6.60;1.40;;;;;;;16.04;91.94;100029.85;104899;1273;74162;-62
2022/08/06 02:52:21;;;;;;;6.60;1.40;;;;;;;16.01;92.32;100020.48;104800;1274;69559;-64
2022/08/06 02:55:25;;;;;;;5.90;1.10;;;;;;;16.01;92.70;100023.38;104970;1273;74391;-62
2022/08/06 02:58:52;;;;;;;4.80;1.10;;;;;;;16.00;93.08;100040.60;104812;1273;59663;-62
2022/08/06 03:01:56;;;;;;;7.90;1.40;;;;;;;16.00;93.05;100045.61;104803;1273;60577;-59
2022/08/06 03:04:48;;;;;;;6.40;1.20;;;;;;;15.98;93.14;100045.13;104774;1273;74790;-62
2022/08/06 03:07:46;;;;;;;7.50;1.40;;;;;;;15.93;92.93;100054.02;104829;1273;67569;-62
2022/08/06 03:10:36;;;;;;;5.50;1.30;;;;;;;15.88;92.29;100046.50;104771;1274;74364;-61
2022/08/06 03:13:27;;;;;;;6.30;1.30;;;;;;;15.82;92.26;100047.27;104880;1273;59645;-63
2022/08/06 03:16:25;;;;;;;7.10;1.30;;;;;;;15.76;91.87;100059.80;104753;1274;60840;-62
2022/08/06 03:19:18;;;;;;;5.00;1.00;;;;;;;15.73;91.86;100064.41;104641;1273;73936;-63
2022/08/06 03:22:29;;;;;;;4.60;0.90;;;;;;;15.69;91.50;100072.11;104978;1273;69585;-61
2022/08/06 03:25:28;;;;;;;5.10;1.20;;;;;;;15.64;90.66;100074.02;105067;1273;73404;-62
2022/08/06 03:28:19;;;;;;;9.20;1.30;;;;;;;15.60;90.66;100082.09;104939;1273;59783;-63
2022/08/06 03:31:10;;;;;;;6.60;1.00;;;;;;;15.59;90.31;100094.59;104672;1274;60245;-63
2022/08/06 03:34:00;;;;;;;6.10;1.30;;;;;;;15.53;89.93;100090.55;104835;1274;74755;-61
2022/08/06 03:36:52;;;;;;;6.20;1.20;;;;;;;15.44;89.82;100079.19;104982;1273;68439;-62
2022/08/06 03:39:43;;;;;;;5.20;1.10;;;;;;;15.37;90.05;100081.36;105006;1274;73425;-62
2022/08/06 03:42:41;;;;;;;5.10;1.30;;;;;;;15.30;90.30;100087.89;105081;1273;61137;-61
2022/08/06 03:45:35;;;;;;;6.60;1.20;;;;;;;15.24;90.07;100099.23;104927;1273;61114;-61
2022/08/06 03:48:44;;;;;;;5.90;1.30;;;;;;;15.20;90.19;100096.42;104891;1273;73732;-63
2022/08/06 03:51:36;;;;;;;6.20;1.40;;;;;;;15.17;90.28;100105.41;104984;1274;68500;-62
2022/08/06 03:54:46;;;;;;;5.20;1.10;;;;;;;15.16;90.20;100111.06;104969;1274;73366;-62
2022/08/06 03:57:41;;;;;;;5.70;1.00;;;;;;;15.12;90.04;100113.03;104798;1273;61314;-61
2022/08/06 04:01:06;;;;;;;5.70;1.30;;;;;;;15.11;90.14;100125.51;104792;1274;59641;-60
2022/08/06 04:03:57;;;;;;;7.60;1.20;;;;;;;15.10;89.75;100127.90;104846;1274;73633;-62
2022/08/06 04:06:46;;;;;;;5.20;1.10;;;;;;;15.07;89.95;100126.05;106068;1272;68071;-64
2022/08/06 04:09:39;;;;;;;7.70;1.20;;;;;;;15.05;90.00;100135.91;104697;1274;74405;-61
2022/08/06 04:12:47;;;;;;;6.70;1.20;;;;;;;15.03;89.90;100141.67;105068;1273;61327;-61
2022/08/06 04:15:58;;;;;;;5.40;1.40;;;;;;;14.99;90.21;100144.00;104876;1274;60854;-62
2022/08/06 04:18:55;;;;;;;5.10;1.10;;;;;;;14.97;90.22;100133.96;104747;1274;74678;-64
2022/08/06 04:21:46;;;;;;;7.00;1.40;;;;;;;14.96;90.16;100142.96;104763;1274;69429;-62
2022/08/06 04:24:54;;;;;;;6.30;1.20;;;;;;;14.97;90.35;100146.63;105128;1274;74400;-62
2022/08/06 04:27:46;;;;;;;6.00;1.10;;;;;;;14.98;89.94;100150.29;104683;1275;61259;-63
2022/08/06 04:30:42;;;;;;;5.70;1.10;;;;;;;15.03;90.15;100165.37;104769;1273;60587;-63
2022/08/06 04:33:35;;;;;;;5.60;1.00;;;;;;;15.10;89.69;100173.08;104871;1274;74280;-60
2022/08/06 04:36:24;;;;;;;4.90;1.10;;;;;;;15.18;89.04;100170.77;104690;1274;69588;-62
2022/08/06 04:39:13;;;;;;;5.50;0.90;;;;;;;15.25;88.73;100172.58;104615;1273;73516;-62
2022/08/06 04:42:07;;;;;;;6.20;1.00;;;;;;;15.35;88.04;100176.28;104967;1274;59743;-61
2022/08/06 04:44:56;;;;;;;5.00;1.20;;;;;;;15.42;87.50;100183.95;104724;1274;60669;-61
2022/08/06 04:47:48;;;;;;;4.70;1.00;;;;;;;15.47;87.19;100188.50;104715;1273;74140;-61
2022/08/06 04:50:37;;;;;;;6.20;1.40;;;;;;;15.54;86.59;100180.40;104769;1273;67622;-64
2022/08/06 04:53:25;;;;;;;5.10;1.20;;;;;;;15.64;86.33;100184.75;104826;1274;73500;-61
2022/08/06 04:56:33;;;;;;;5.30;1.20;;;;;;;15.75;85.49;100184.21;104980;1273;59763;-64
2022/08/06 04:59:24;;;;;;;4.40;1.00;;;;;;;15.83;84.67;100184.23;104891;1273;61330;-61
2022/08/06 05:02:32;;;;;;;5.90;1.30;;;;;;;15.93;83.75;100189.98;105102;1273;73641;-62
2022/08/06 05:05:21;;;;;;;6.90;1.30;;;;;;;16.07;82.63;100194.05;104692;1273;68161;-63
2022/08/06 05:08:11;;;;;;;5.70;1.20;;;;;;;16.23;81.82;100195.36;104782;1273;74102;-65
2022/08/06 05:11:16;;;;;;;6.50;1.40;;;;;;;16.42;81.25;100196.80;105340;1273;59702;-64
2022/08/06 05:14:13;;;;;;;5.00;1.10;;;;;;;16.68;79.86;100210.67;105170;1273;60721;-64
2022/08/06 05:17:04;;;;;;;5.40;1.00;;;;;;;17.04;78.43;100209.58;104742;1273;74729;-63
2022/08/06 05:20:24;;;;;;;4.00;0.80;;;;;;;17.51;76.73;100210.26;104653;1273;69701;-64
2022/08/06 05:23:29;;;;;;;6.00;1.10;;;;;;;17.90;74.70;100222.92;105138;1273;73151;-65
2022/08/06 05:26:19;;;;;;;4.20;1.10;;;;;;;18.06;73.15;100224.67;104278;1274;1303875;-64
2022/08/06 05:29:19;;;;;;;5.70;0.90;;;;;;;18.16;72.15;100223.16;105008;1273;60498;-64
2022/08/06 05:32:10;;;;;;;6.80;1.10;;;;;;;18.16;71.96;100226.39;104873;1274;73655;-64
2022/08/06 05:34:58;;;;;;;4.90;1.10;;;;;;;18.13;71.28;100230.15;104721;1273;69571;-64
2022/08/06 05:37:46;;;;;;;4.80;1.20;;;;;;;18.08;71.61;100230.78;104710;1274;74341;-64
2022/08/06 05:40:55;;;;;;;5.40;1.10;;;;;;;18.05;71.78;100238.09;105000;1274;59711;-64
2022/08/06 05:43:45;;;;;;;5.50;1.10;;;;;;;18.00;71.76;100238.36;104787;1272;60481;-63
2022/08/06 05:46:54;;;;;;;4.50;1.10;;;;;;;18.00;71.48;100243.17;104678;1273;74800;-65
2022/08/06 05:50:01;;;;;;;5.90;1.20;;;;;;;17.98;70.86;100247.90;104683;1273;69544;-63
2022/08/06 05:53:06;;;;;;;5.60;1.10;;;;;;;17.96;70.95;100248.29;104879;1273;73543;-64
2022/08/06 05:56:05;;;;;;;4.50;1.00;;;;;;;17.97;70.93;100249.83;104840;1274;59630;-63
2022/08/06 05:59:02;;;;;;;6.10;1.10;;;;;;;17.94;70.65;100257.69;104649;1274;61076;-62
2022/08/06 06:01:53;;;;;;;5.10;1.20;;;;;;;17.93;70.57;100257.95;104659;1273;73888;-63
2022/08/06 06:04:43;;;;;;;5.60;1.60;;;;;;;17.88;70.61;100260.46;105100;1274;70039;-63
2022/08/06 06:07:35;;;;;;;5.90;1.10;;;;;;;17.81;70.64;100254.32;104777;1274;74190;-63
2022/08/06 06:10:45;;;;;;;6.50;1.60;;;;;;;17.81;71.16;100257.44;105118;1274;59687;-71
2022/08/06 06:13:42;;;;;;;5.90;1.20;;;;;;;17.98;70.63;100257.98;104598;1273;60939;-73
2022/08/06 06:16:54;;;;;;;4.90;1.00;;;;;;;18.17;69.96;100252.38;105306;1273;72236;-71
2022/08/06 06:20:19;;;;;;;7.00;1.20;;;;;;;18.25;69.51;100256.34;104912;1273;69993;-72
2022/08/06 06:23:48;;;;;;;5.10;1.30;;;;;;;18.32;69.35;100255.47;104917;1273;74500;-73
2022/08/06 06:27:00;;;;;;;5.20;1.00;;;;;;;18.33;69.08;100262.53;105095;1274;59640;-75
2022/08/06 06:30:12;;;;;;;5.40;1.20;;;;;;;18.24;69.04;100266.00;105993;1274;60260;-75
2022/08/06 06:33:53;;;;;;;7.20;1.30;;;;;;;18.18;68.94;100274.13;105809;1274;73312;-71
2022/08/06 06:37:07;;;;;;;5.10;1.10;;;;;;;18.17;69.64;100279.62;105155;1273;68218;-71
2022/08/06 06:40:21;;;;;;;4.90;1.00;;;;;;;18.26;69.20;100283.71;105142;1274;71608;-70
2022/08/06 06:43:29;;;;;;;5.10;0.90;;;;;;;18.33;68.42;100292.52;105178;1273;59969;-72
2022/08/06 06:46:47;;;;;;;5.10;1.30;;;;;;;18.43;68.40;100291.77;104951;1273;59643;-73
2022/08/06 06:49:47;;;;;;;5.20;0.90;;;;;;;18.54;67.91;100297.31;104962;1274;73296;-72
2022/08/06 06:52:52;;;;;;;6.20;1.20;;;;;;;18.65;66.89;100298.39;105283;1274;68104;-75
2022/08/06 06:55:50;;;;;;;5.70;1.10;;;;;;;18.75;66.79;100298.12;104749;1274;72994;-73
2022/08/06 06:59:06;;;;;;;6.20;1.10;;;;;;;18.83;65.91;100302.54;104967;1275;59804;-73
2022/08/06 07:02:05;;;;;;;5.10;1.10;;;;;;;18.86;65.63;100299.96;105248;1273;61862;-72
2022/08/06 07:05:13;;;;;;;5.90;1.10;;;;;;;19.03;64.77;100296.17;104996;1274;74634;-72
2022/08/06 07:08:06;;;;;;;5.00;1.00;;;;;;;19.12;64.35;100290.67;104769;1276;67050;-72
2022/08/06 07:10:55;;;;;;;6.10;1.30;;;;;;;19.17;64.44;100287.70;104875;1274;72184;-73
2022/08/06 07:13:45;;;;;;;7.20;1.10;;;;;;;19.30;64.34;100296.05;104905;1274;59550;-73
2022/08/06 07:16:40;;;;;;;5.10;1.20;;;;;;;19.45;64.02;100296.40;105134;1274;59689;-73
2022/08/06 07:19:30;;;;;;;5.20;1.00;;;;;;;19.50;63.01;100296.56;104945;1274;73366;-73
2022/08/06 07:22:21;;;;;;;5.70;0.90;;;;;;;19.54;62.80;100297.36;105101;1274;68676;-74
2022/08/06 07:25:14;;;;;;;6.60;1.30;;;;;;;19.54;62.61;100302.77;104882;1273;72608;-72
2022/08/06 07:28:13;;;;;;;8.00;1.20;;;;;;;19.52;62.31;100307.48;104983;1276;59900;-74
2022/08/06 07:31:11;;;;;;;5.60;1.10;;;;;;;19.54;62.46;100311.88;105136;1274;60345;-73
2022/08/06 07:34:02;;;;;;;5.70;1.20;;;;;;;19.65;62.74;100315.55;104602;1274;73126;-73
2022/08/06 07:36:57;;;;;;;5.70;1.00;;;;;;;19.81;61.95;100322.25;105057;1274;66640;-74
2022/08/06 07:39:49;;;;;;;5.60;0.90;;;;;;;19.99;61.87;100324.02;104837;1275;72604;-77
2022/08/06 07:42:39;;;;;;;5.70;1.20;;;;;;;20.08;61.34;100329.61;105419;1274;59821;-73
2022/08/06 07:45:33;;;;;;;4.80;1.10;;;;;;;20.05;61.16;100333.01;105315;1274;59626;-83
2022/08/06 07:48:49;;;;;;;5.70;1.20;;;;;;;19.97;61.49;100343.55;106814;1274;72004;-81
2022/08/06 07:51:42;;;;;;;5.70;1.10;;;;;;;19.66;62.55;100350.35;106516;1274;66512;-82
2022/08/06 07:54:31;;;;;;;6.10;1.20;;;;;;;19.26;64.71;100354.36;106004;1274;72971;-80
2022/08/06 07:57:22;;;;;;;5.20;1.30;;;;;;;18.97;67.12;100356.25;106190;1274;59666;-81
2022/08/06 08:00:13;;;;;;;5.10;1.30;;;;;;;18.80;68.02;100365.33;106292;1274;61854;-81
2022/08/06 08:06:31;;;;;;;5.90;1.10;;;;;;;19.10;69.05;100370.54;106888;1274;67948;-81
2022/08/06 08:09:38;;;;;;;5.70;1.10;;;;;;;19.32;67.64;100377.65;107490;1268;71512;-80
2022/08/06 08:12:45;;;;;;;6.40;1.10;;;;;;;19.48;67.14;100378.30;107270;1268;59769;-81
2022/08/06 08:15:40;;;;;;;8.00;1.20;;;;;;;19.56;66.45;100379.17;106198;1274;60465;-81
2022/08/06 08:18:32;;;;;;;5.60;1.20;;;;;;;19.49;66.27;100381.73;106322;1274;73089;-81
2022/08/06 08:21:23;;;;;;;6.70;1.20;;;;;;;19.35;66.16;100383.13;106511;1274;68237;-81
2022/08/06 08:24:11;;;;;;;5.40;1.30;;;;;;;19.28;66.64;100386.07;107967;1274;73445;-80
2022/08/06 08:27:00;;;;;;;6.20;1.50;;;;;;;19.33;67.32;100390.73;107937;1274;59423;-81
2022/08/06 08:30:05;;;;;;;5.70;1.30;;;;;;;19.40;67.17;100399.80;106457;1275;60540;-80
2022/08/06 08:32:53;;;;;;;5.60;1.30;;;;;;;19.57;65.11;100402.41;106130;1274;74945;-81
2022/08/06 08:35:42;;;;;;;7.80;1.60;;;;;;;19.84;63.86;100400.81;106105;1274;66808;-79
2022/08/06 08:38:48;;;;;;;5.10;1.10;;;;;;;20.42;61.44;100405.08;106328;1274;72920;-79
2022/08/06 08:41:55;;;;;;;6.00;1.20;;;;;;;21.22;59.69;100405.70;106918;1274;58280;-79
2022/08/06 08:44:46;;;;;;;6.00;1.40;;;;;;;21.88;56.07;100404.09;106907;1275;62248;-79
2022/08/06 08:47:37;;;;;;;7.80;1.50;;;;;;;22.41;55.23;100402.11;106729;1274;73858;-79
2022/08/06 08:50:42;;;;;;;6.60;1.20;;;;;;;22.75;50.36;100411.50;106715;1274;68391;-79
2022/08/06 08:53:43;;;;;;;4.30;0.90;;;;;;;23.73;47.47;100409.70;106218;1274;73408;-77
2022/08/06 08:56:35;;;;;;;4.00;0.70;;;;;;;24.36;43.82;100413.26;105472;1274;59617;-79
2022/08/06 08:59:43;;;;;;;4.00;0.90;;;;;;;24.70;42.66;100416.15;104781;1275;59721;-73
2022/08/06 09:02:50;;;;;;;5.10;1.00;;;;;;;25.53;40.83;100417.67;105023;1274;72087;-75
2022/08/06 09:05:38;;;;;;;4.30;0.80;;;;;;;25.38;40.33;100426.76;105053;1274;66817;-76
2022/08/06 09:08:36;;;;;;;5.30;0.90;;;;;;;25.71;40.65;100426.81;104838;1274;71277;-74
2022/08/06 09:11:45;;;;;;;3.70;0.60;;;;;;;26.16;38.29;100436.92;105027;1274;60245;-73
2022/08/06 09:14:55;;;;;;;5.00;0.70;;;;;;;25.46;37.05;100438.40;105339;1274;60358;-76
2022/08/06 09:17:47;;;;;;;6.10;0.90;;;;;;;24.94;37.17;100434.82;105391;1274;74052;-74
2022/08/06 09:20:55;;;;;;;3.40;0.70;;;;;;;24.62;37.82;100441.02;105038;1274;68012;-76
2022/08/06 09:23:45;;;;;;;6.00;0.80;;;;;;;24.91;37.79;100438.96;104964;1274;74317;-77
2022/08/06 09:27:12;;;;;;;5.00;0.80;;;;;;;25.66;37.02;100437.55;105246;1274;59670;-78
2022/08/06 09:30:26;;;;;;;5.20;0.80;;;;;;;26.47;34.88;100433.48;105239;1274;61366;-76
2022/08/06 09:33:20;;;;;;;3.60;0.60;;;;;;;27.13;33.92;100438.27;105070;1274;71949;-76
2022/08/06 09:36:55;;;;;;;5.50;0.80;;;;;;;28.49;32.80;100433.13;104967;1274;69287;-74
2022/08/06 09:39:45;;;;;;;5.20;0.70;;;;;;;29.75;29.86;100436.34;104940;1274;73858;-75
2022/08/06 09:42:53;;;;;;;4.90;0.80;;;;;;;29.71;27.39;100441.17;105937;1274;59684;-75
2022/08/06 09:45:45;;;;;;;4.50;0.60;;;;;;;29.98;26.28;100445.13;105149;1274;60842;-76
2022/08/06 09:48:34;;;;;;;5.20;0.60;;;;;;;29.87;26.90;100449.13;105096;1276;73247;-76
2022/08/06 09:51:22;;;;;;;5.80;0.70;;;;;;;29.68;26.88;100453.95;104895;1274;68056;-76
2022/08/06 09:54:37;;;;;;;5.40;0.60;;;;;;;28.86;27.67;100451.95;104909;1274;71578;-74
2022/08/06 09:57:41;;;;;;;3.30;0.50;;;;;;;28.51;28.35;100460.56;105127;1275;59711;-77
2022/08/06 10:00:34;;;;;;;5.70;0.80;;;;;;;27.68;29.60;100472.27;104937;1275;60361;-76
2022/08/06 10:03:41;;;;;;;5.00;0.70;;;;;;;27.77;29.68;100475.20;104916;1274;74854;-76
2022/08/06 10:06:54;;;;;;;5.20;0.80;;;;;;;28.27;29.73;100475.02;104733;1275;68109;-75
2022/08/06 10:09:53;;;;;;;4.40;0.80;;;;;;;28.26;29.72;100482.65;104888;1275;72876;-74
2022/08/06 10:12:42;;;;;;;4.60;0.60;;;;;;;28.20;29.85;100488.69;104905;1274;59702;-75
2022/08/06 10:15:30;;;;;;;4.30;0.70;;;;;;;28.06;29.43;100504.69;104968;1274;59567;-76
2022/08/06 10:18:49;;;;;;;4.40;0.70;;;;;;;27.90;29.60;100510.64;104790;1277;73860;-77
2022/08/06 10:21:46;;;;;;;4.80;0.70;;;;;;;27.09;30.51;100523.16;105413;1275;69025;-76
2022/08/06 10:24:43;;;;;;;4.70;0.70;;;;;;;26.23;32.19;100524.02;104922;1277;71896;-77
2022/08/06 10:27:37;;;;;;;4.70;0.70;;;;;;;25.46;32.93;100531.58;105161;1276;59672;-73
2022/08/06 10:30:27;;;;;;;4.60;0.80;;;;;;;25.07;33.16;100533.58;105157;1275;62064;-75
2022/08/06 10:33:28;;;;;;;5.10;0.90;;;;;;;24.85;32.84;100537.05;104955;1275;72213;-73
2022/08/06 10:36:28;;;;;;;5.10;1.00;;;;;;;24.67;33.34;100541.39;105296;1274;66693;-76
2022/08/06 10:39:26;;;;;;;5.30;0.80;;;;;;;25.33;32.59;100534.44;104810;1275;72588;-79
2022/08/06 10:42:34;;;;;;;4.70;0.70;;;;;;;26.37;31.43;100527.27;104973;1276;59742;-77
2022/08/06 10:45:23;;;;;;;3.70;0.60;;;;;;;27.33;29.95;100519.13;105872;1276;60210;-78
2022/08/06 10:48:16;;;;;;;3.90;0.80;;;;;;;28.00;28.52;100519.66;105411;1276;71841;-78
2022/08/06 10:51:25;;;;;;;7.10;0.90;;;;;;;28.44;27.13;100517.49;105011;1277;69498;-77
2022/08/06 10:54:35;;;;;;;4.90;0.80;;;;;;;28.54;26.61;100514.35;105406;1274;72592;-77
2022/08/06 10:57:24;;;;;;;3.30;0.60;;;;;;;29.69;25.30;100506.55;104974;1275;59863;-75
2022/08/06 11:00:23;;;;;;;5.60;0.60;;;;;;;31.00;23.81;100500.70;104963;1274;60616;-77
2022/08/06 11:03:28;;;;;;;3.70;0.50;;;;;;;31.07;23.41;100510.81;105110;1275;73256;-75
2022/08/06 11:06:26;;;;;;;5.20;0.90;;;;;;;30.88;24.18;100514.55;105323;1275;68522;-76
2022/08/06 11:10:23;;;;;;;4.10;0.70;;;;;;;31.94;23.07;100507.05;105173;1275;72918;-75
2022/08/06 11:13:38;;;;;;;4.70;0.70;;;;;;;32.66;22.00;100505.77;105223;1274;59679;-75
2022/08/06 11:16:40;;;;;;;4.60;0.60;;;;;;;32.43;21.52;100506.05;105328;1275;59675;-74
2022/08/06 11:19:47;;;;;;;5.20;0.70;;;;;;;31.18;23.63;100512.86;104962;1274;72075;-76
2022/08/06 11:22:44;;;;;;;4.20;0.60;;;;;;;29.46;25.69;100511.25;105170;1275;68037;-73
2022/08/06 11:25:51;;;;;;;3.60;0.60;;;;;;;28.54;27.04;100508.34;105220;1275;73160;-76
2022/08/06 11:28:39;;;;;;;5.10;0.50;;;;;;;28.67;26.69;100503.45;105017;1277;59810;-76
2022/08/06 11:31:46;;;;;;;5.70;0.70;;;;;;;28.82;26.07;100496.16;105261;1277;61184;-80
2022/08/06 11:34:44;;;;;;;4.30;0.50;;;;;;;29.23;25.59;100486.77;105298;1276;73416;-75
2022/08/06 11:37:43;;;;;;;3.50;0.60;;;;;;;29.04;25.10;100497.42;104883;1275;68521;-76
2022/08/06 11:41:07;;;;;;;3.10;0.60;;;;;;;28.42;25.34;100488.71;105116;1276;72864;-74
2022/08/06 11:44:05;;;;;;;3.90;0.50;;;;;;;28.21;25.58;100493.10;105242;1276;59868;-76
2022/08/06 11:47:12;;;;;;;4.20;0.60;;;;;;;28.22;25.18;100482.23;105171;1276;61864;-77
2022/08/06 11:50:00;;;;;;;3.10;0.60;;;;;;;27.72;25.38;100495.86;105088;1276;72924;-77
2022/08/06 11:52:49;;;;;;;4.70;0.70;;;;;;;27.02;26.47;100498.67;105741;1276;68211;-78
2022/08/06 11:56:04;;;;;;;4.10;0.60;;;;;;;26.45;27.83;100498.34;105969;1276;71611;-76
2022/08/06 11:59:14;;;;;;;3.80;0.60;;;;;;;25.92;29.27;100497.93;105926;1276;59566;-77
2022/08/06 12:02:11;;;;;;;3.50;0.60;;;;;;;25.79;29.74;100497.02;105261;1276;59650;-76
2022/08/06 12:05:27;;;;;;;4.90;0.60;;;;;;;25.45;29.52;100502.10;105334;1276;71120;-78
2022/08/06 12:08:21;;;;;;;4.50;0.90;;;;;;;24.88;30.67;100505.98;105640;1276;68623;-76
2022/08/06 12:11:30;;;;;;;4.20;0.60;;;;;;;24.29;31.41;100498.41;105335;1277;73181;-77
2022/08/06 12:14:41;;;;;;;5.00;0.60;;;;;;;23.89;31.86;100512.21;105341;1275;59696;-78
2022/08/06 12:17:38;;;;;;;6.30;0.80;;;;;;;23.57;31.50;100506.15;105558;1275;60974;-78
2022/08/06 12:20:48;;;;;;;4.50;0.80;;;;;;;23.40;31.76;100512.92;105988;1274;73294;-77
2022/08/06 12:23:42;;;;;;;4.30;0.70;;;;;;;23.33;32.79;100510.34;105182;1274;68198;-77
2022/08/06 12:26:44;;;;;;;4.30;0.60;;;;;;;23.35;34.00;100515.41;104988;1275;71069;-75
2022/08/06 12:29:34;;;;;;;3.30;0.70;;;;;;;23.26;33.97;100513.15;105645;1276;59907;-76
2022/08/06 12:32:32;;;;;;;5.20;0.80;;;;;;;23.14;33.59;100511.00;105105;1274;59547;-77
2022/08/06 12:35:20;;;;;;;5.70;0.80;;;;;;;23.06;34.46;100512.21;105622;1275;73296;-77
2022/08/06 12:38:11;;;;;;;5.20;0.80;;;;;;;23.08;34.57;100510.27;105796;1274;68070;-79
2022/08/06 12:41:05;;;;;;;4.20;0.60;;;;;;;23.01;34.18;100517.36;105415;1274;74384;-77
2022/08/06 12:43:58;;;;;;;9.70;0.90;;;;;;;22.60;34.95;100510.05;104924;1274;59757;-77
2022/08/06 12:46:46;;;;;;;6.80;0.90;;;;;;;22.43;35.29;100518.21;104987;1274;60000;-77
2022/08/06 12:49:41;;;;;;;5.60;0.90;;;;;;;22.26;35.96;100511.20;105060;1277;74732;-77
2022/08/06 12:52:31;;;;;;;5.90;1.10;;;;;;;22.28;36.88;100514.02;105382;1274;68651;-75
2022/08/06 12:55:19;;;;;;;3.80;0.80;;;;;;;22.35;36.59;100516.89;105901;1274;73934;-76
2022/08/06 12:58:11;;;;;;;3.90;0.80;;;;;;;22.35;35.81;100519.27;105676;1275;59774;-79
2022/08/06 13:01:27;;;;;;;5.00;0.80;;;;;;;22.25;36.05;100512.98;105259;1275;61092;-77
2022/08/06 13:04:37;;;;;;;6.00;1.10;;;;;;;22.32;36.34;100520.11;104895;1276;73253;-76
2022/08/06 13:07:26;;;;;;;6.80;1.20;;;;;;;22.27;35.50;100524.84;105265;1274;68321;-77
2022/08/06 13:10:31;;;;;;;4.50;0.80;;;;;;;22.09;35.35;100520.02;105229;1275;73351;-77
2022/08/06 13:13:47;;;;;;;7.30;1.30;;;;;;;21.99;36.08;100521.11;105278;1275;59656;-77
2022/08/06 13:16:56;;;;;;;4.60;0.90;;;;;;;21.90;36.05;100514.45;105588;1277;60542;-78
2022/08/06 13:19:57;;;;;;;5.70;0.80;;;;;;;21.84;36.61;100516.05;105550;1277;73353;-78
2022/08/06 13:22:51;;;;;;;4.80;0.80;;;;;;;21.62;36.68;100519.68;105074;1277;66766;-75
2022/08/06 13:25:45;;;;;;;4.10;0.80;;;;;;;21.49;36.81;100519.21;104930;1275;74499;-76
2022/08/06 13:28:40;;;;;;;4.00;0.90;;;;;;;21.42;36.72;100527.98;105573;1275;59660;-76
2022/08/06 13:32:09;;;;;;;5.10;0.90;;;;;;;21.39;36.53;100519.77;105462;1277;60661;-76
2022/08/06 13:35:26;;;;;;;5.70;1.00;;;;;;;21.34;37.30;100520.18;105140;1277;72850;-76
2022/08/06 13:38:32;;;;;;;5.40;1.00;;;;;;;21.40;37.30;100523.66;104624;1277;70042;-75
2022/08/06 13:41:31;;;;;;;4.20;0.90;;;;;;;21.30;36.83;100523.97;104847;1276;74013;-76
2022/08/06 13:44:45;;;;;;;8.20;1.00;;;;;;;21.27;36.84;100521.61;105029;1277;59786;-75
2022/08/06 13:47:33;;;;;;;6.30;1.10;;;;;;;21.28;36.79;100527.78;105458;1275;59633;-77
2022/08/06 13:50:44;;;;;;;6.10;1.20;;;;;;;21.32;35.94;100526.30;104906;1276;73226;-76
2022/08/06 13:53:32;;;;;;;5.50;1.00;;;;;;;21.20;35.75;100533.23;105421;1277;68730;-77